Terminal Aerodrome Forecast
Issued by NWS

Current Version | Previous Version | Text Only | Print | Product List | Glossary Off
Versions: 1 2 3 4 5 6 7 8 9 10 11 12 13 14 15 16 17 18 19 20 21 22 23 24

000
FTUS41 KRLX 252038 AAA
TAFCKB
TAF AMD
KCKB 252038Z 2521/2618 27009G17KT P6SM FEW050
     FM252300 26006KT P6SM SCT060
     FM260300 VRB03KT P6SM FEW250
     FM261400 26006G15KT P6SM FEW050=

USA.gov is the U.S. government's official web portal to all federal, state and local government web resources and services.